N325CJ LSZB-LFLB
Flight info
| Callsign | N325CJ |
|---|---|
| Flight time | 0h 33m |
| Altitude | 18000 |
| Route | N0450F180 AMRID Z60 FRIBU Y56 SALEV |
| Aircraft | C25C/M-VGDW/C |
Departure
| Time | 2026-04-29 22:02 |
|---|---|
| Airport | Bern Airport (LSZB) |
Arrival
| Time | 2026-04-29 22:35 |
|---|---|
| Airport | Chambéry Aix les Bains airport (LFLB) |
| Time | Latitude | Longitude | Altitude | Speed | Heading |
|---|---|---|---|---|---|
| 2026-04-29 21:49 | 46.91342 | 7.49999 | 1676 ft | 0 kts | 151° |
| 2026-04-29 22:00 | 46.91315 | 7.49990 | 1686 ft | 10 kts | 193° |
| 2026-04-29 22:00 | 46.91235 | 7.50078 | 1684 ft | 21 kts | 140° |
| 2026-04-29 22:00 | 46.91159 | 7.50174 | 1678 ft | 22 kts | 140° |
| 2026-04-29 22:00 | 46.90995 | 7.50370 | 1682 ft | 24 kts | 140° |
| 2026-04-29 22:01 | 46.90908 | 7.50336 | 1675 ft | 15 kts | 292° |
| 2026-04-29 22:01 | 46.90926 | 7.50308 | 1675 ft | 10 kts | 320° |
| 2026-04-29 22:01 | 46.91273 | 7.49885 | 1675 ft | 121 kts | 319° |
| 2026-04-29 22:01 | 46.92083 | 7.48886 | 2258 ft | 169 kts | 319° |
| 2026-04-29 22:02 | 46.93044 | 7.47684 | 3481 ft | 194 kts | 327° |
| 2026-04-29 22:02 | 46.94169 | 7.46367 | 4571 ft | 219 kts | 324° |
| 2026-04-29 22:02 | 46.95391 | 7.44876 | 5565 ft | 243 kts | 323° |
| 2026-04-29 22:02 | 46.96264 | 7.43781 | 6485 ft | 244 kts | 320° |
| 2026-04-29 22:03 | 46.97114 | 7.41637 | 7626 ft | 255 kts | 286° |
| 2026-04-29 22:03 | 46.96983 | 7.38216 | 9149 ft | 261 kts | 247° |
| 2026-04-29 22:03 | 46.96324 | 7.36698 | 9929 ft | 262 kts | 226° |
| 2026-04-29 22:03 | 46.95049 | 7.34800 | 10957 ft | 267 kts | 224° |
| 2026-04-29 22:04 | 46.93692 | 7.32901 | 12004 ft | 271 kts | 219° |
| 2026-04-29 22:04 | 46.92025 | 7.31575 | 13043 ft | 275 kts | 202° |
| 2026-04-29 22:04 | 46.89673 | 7.30092 | 14382 ft | 281 kts | 204° |
| 2026-04-29 22:04 | 46.88477 | 7.29322 | 15007 ft | 284 kts | 204° |
| 2026-04-29 22:05 | 46.86651 | 7.28133 | 15935 ft | 289 kts | 204° |
| 2026-04-29 22:05 | 46.84798 | 7.26918 | 16869 ft | 293 kts | 204° |
| 2026-04-29 22:05 | 46.80966 | 7.24430 | 18151 ft | 326 kts | 204° |
| 2026-04-29 22:06 | 46.78781 | 7.22999 | 18160 ft | 359 kts | 206° |
| 2026-04-29 22:06 | 46.76752 | 7.20741 | 18148 ft | 385 kts | 229° |
| 2026-04-29 22:06 | 46.74934 | 7.17699 | 18148 ft | 408 kts | 230° |
| 2026-04-29 22:06 | 46.73074 | 7.14489 | 18149 ft | 427 kts | 231° |
| 2026-04-29 22:07 | 46.71100 | 7.11137 | 18143 ft | 441 kts | 230° |
| 2026-04-29 22:07 | 46.69032 | 7.07720 | 18142 ft | 452 kts | 230° |
| 2026-04-29 22:07 | 46.66951 | 7.04274 | 18141 ft | 459 kts | 230° |
| 2026-04-29 22:07 | 46.64858 | 7.00770 | 18138 ft | 461 kts | 230° |
| 2026-04-29 22:08 | 46.62834 | 6.97387 | 18138 ft | 427 kts | 230° |
| 2026-04-29 22:08 | 46.60932 | 6.94228 | 18135 ft | 404 kts | 230° |
| 2026-04-29 22:08 | 46.59116 | 6.91216 | 18130 ft | 390 kts | 230° |
| 2026-04-29 22:08 | 46.57342 | 6.88263 | 18122 ft | 382 kts | 230° |
| 2026-04-29 22:09 | 46.55620 | 6.85411 | 18113 ft | 376 kts | 230° |
| 2026-04-29 22:09 | 46.53904 | 6.82562 | 18117 ft | 370 kts | 230° |
| 2026-04-29 22:09 | 46.52209 | 6.79766 | 18110 ft | 366 kts | 230° |
| 2026-04-29 22:09 | 46.50558 | 6.77027 | 18116 ft | 363 kts | 230° |
| 2026-04-29 22:10 | 46.48887 | 6.74274 | 18116 ft | 360 kts | 230° |
| 2026-04-29 22:10 | 46.47241 | 6.71553 | 18101 ft | 358 kts | 230° |
| 2026-04-29 22:10 | 46.45598 | 6.68850 | 18103 ft | 356 kts | 231° |
| 2026-04-29 22:10 | 46.43981 | 6.66183 | 18114 ft | 354 kts | 230° |
| 2026-04-29 22:11 | 46.42352 | 6.63506 | 18107 ft | 353 kts | 231° |
| 2026-04-29 22:11 | 46.40729 | 6.60838 | 18116 ft | 351 kts | 230° |
| 2026-04-29 22:11 | 46.39132 | 6.58214 | 18113 ft | 351 kts | 231° |
| 2026-04-29 22:11 | 46.37513 | 6.55563 | 18110 ft | 350 kts | 230° |
| 2026-04-29 22:12 | 46.35902 | 6.52918 | 18111 ft | 349 kts | 231° |
| 2026-04-29 22:12 | 46.34305 | 6.50309 | 18107 ft | 349 kts | 230° |
| 2026-04-29 22:12 | 46.32701 | 6.47679 | 18095 ft | 348 kts | 230° |
| 2026-04-29 22:12 | 46.31101 | 6.45072 | 18100 ft | 347 kts | 230° |
| 2026-04-29 22:13 | 46.29495 | 6.42443 | 18105 ft | 347 kts | 230° |
| 2026-04-29 22:13 | 46.27887 | 6.39827 | 18104 ft | 346 kts | 230° |
| 2026-04-29 22:13 | 46.26309 | 6.37250 | 18100 ft | 346 kts | 230° |
| 2026-04-29 22:13 | 46.24701 | 6.34639 | 18101 ft | 346 kts | 230° |
| 2026-04-29 22:14 | 46.23099 | 6.32028 | 18091 ft | 346 kts | 230° |
| 2026-04-29 22:14 | 46.21527 | 6.29479 | 17699 ft | 339 kts | 230° |
| 2026-04-29 22:14 | 46.19977 | 6.26963 | 17299 ft | 329 kts | 230° |
| 2026-04-29 22:14 | 46.18474 | 6.24525 | 16910 ft | 321 kts | 230° |
| 2026-04-29 22:15 | 46.16998 | 6.22136 | 16544 ft | 314 kts | 230° |
| 2026-04-29 22:15 | 46.15566 | 6.19814 | 16235 ft | 312 kts | 230° |
| 2026-04-29 22:15 | 46.14117 | 6.17472 | 15922 ft | 311 kts | 230° |
| 2026-04-29 22:15 | 46.12686 | 6.15153 | 15635 ft | 314 kts | 230° |
| 2026-04-29 22:16 | 46.11209 | 6.12776 | 15337 ft | 319 kts | 229° |
| 2026-04-29 22:16 | 46.09719 | 6.10364 | 15047 ft | 322 kts | 229° |
| 2026-04-29 22:16 | 46.08225 | 6.07964 | 14762 ft | 325 kts | 229° |
| 2026-04-29 22:16 | 46.06718 | 6.05531 | 14479 ft | 326 kts | 229° |
| 2026-04-29 22:17 | 46.05198 | 6.03090 | 14197 ft | 327 kts | 229° |
| 2026-04-29 22:17 | 46.03589 | 6.00829 | 13922 ft | 329 kts | 214° |
| 2026-04-29 22:17 | 46.01428 | 5.99774 | 13645 ft | 330 kts | 189° |
| 2026-04-29 22:17 | 45.99151 | 5.99327 | 13390 ft | 330 kts | 188° |
| 2026-04-29 22:18 | 45.96883 | 5.98840 | 13131 ft | 329 kts | 190° |
| 2026-04-29 22:18 | 45.94660 | 5.98242 | 12874 ft | 328 kts | 192° |
| 2026-04-29 22:18 | 45.92404 | 5.97634 | 12621 ft | 327 kts | 191° |
| 2026-04-29 22:18 | 45.90158 | 5.97061 | 12369 ft | 327 kts | 191° |
| 2026-04-29 22:19 | 45.87944 | 5.96511 | 12143 ft | 325 kts | 191° |
| 2026-04-29 22:19 | 45.85711 | 5.95938 | 11941 ft | 323 kts | 191° |
| 2026-04-29 22:19 | 45.83590 | 5.95400 | 11741 ft | 297 kts | 191° |
| 2026-04-29 22:19 | 45.81644 | 5.94902 | 11533 ft | 271 kts | 191° |
| 2026-04-29 22:20 | 45.79857 | 5.94449 | 11318 ft | 251 kts | 191° |
| 2026-04-29 22:20 | 45.78184 | 5.94025 | 11102 ft | 237 kts | 191° |
| 2026-04-29 22:20 | 45.76531 | 5.93600 | 10888 ft | 244 kts | 191° |
| 2026-04-29 22:20 | 45.74874 | 5.93138 | 10687 ft | 246 kts | 197° |
| 2026-04-29 22:21 | 45.73468 | 5.91804 | 10483 ft | 245 kts | 228° |
| 2026-04-29 22:21 | 45.72521 | 5.89779 | 10296 ft | 245 kts | 239° |
| 2026-04-29 22:21 | 45.71685 | 5.87658 | 10151 ft | 244 kts | 241° |
| 2026-04-29 22:21 | 45.70857 | 5.85543 | 10002 ft | 242 kts | 240° |
| 2026-04-29 22:22 | 45.70172 | 5.83393 | 9847 ft | 242 kts | 259° |
| 2026-04-29 22:22 | 45.70283 | 5.80999 | 9679 ft | 242 kts | 287° |
| 2026-04-29 22:22 | 45.71003 | 5.78813 | 9521 ft | 242 kts | 296° |
| 2026-04-29 22:22 | 45.71766 | 5.76703 | 9373 ft | 241 kts | 296° |
| 2026-04-29 22:23 | 45.72542 | 5.74569 | 9217 ft | 241 kts | 296° |
| 2026-04-29 22:23 | 45.73308 | 5.72428 | 9063 ft | 241 kts | 296° |
| 2026-04-29 22:23 | 45.74059 | 5.70304 | 8908 ft | 241 kts | 296° |
| 2026-04-29 22:23 | 45.74822 | 5.68164 | 8754 ft | 240 kts | 296° |
| 2026-04-29 22:24 | 45.75580 | 5.66031 | 8607 ft | 240 kts | 296° |
| 2026-04-29 22:24 | 45.76337 | 5.63899 | 8453 ft | 240 kts | 296° |
| 2026-04-29 22:24 | 45.77090 | 5.61784 | 8305 ft | 240 kts | 296° |
| 2026-04-29 22:24 | 45.77847 | 5.59645 | 8167 ft | 240 kts | 296° |
| 2026-04-29 22:25 | 45.78617 | 5.57558 | 8134 ft | 236 kts | 301° |
| 2026-04-29 22:25 | 45.79867 | 5.56053 | 8100 ft | 239 kts | 334° |
| 2026-04-29 22:25 | 45.81504 | 5.55677 | 8089 ft | 241 kts | 5° |
| 2026-04-29 22:25 | 45.83158 | 5.55979 | 8095 ft | 242 kts | 6° |
| 2026-04-29 22:26 | 45.84832 | 5.56346 | 8096 ft | 242 kts | 10° |
| 2026-04-29 22:26 | 45.86360 | 5.57309 | 7924 ft | 249 kts | 42° |
| 2026-04-29 22:26 | 45.87316 | 5.59398 | 7720 ft | 255 kts | 74° |
| 2026-04-29 22:26 | 45.87376 | 5.61935 | 7525 ft | 258 kts | 97° |
| 2026-04-29 22:27 | 45.87134 | 5.64447 | 7395 ft | 253 kts | 101° |
| 2026-04-29 22:27 | 45.86844 | 5.66917 | 7259 ft | 247 kts | 100° |
| 2026-04-29 22:27 | 45.86600 | 5.69315 | 7118 ft | 243 kts | 99° |
| 2026-04-29 22:27 | 45.86368 | 5.71704 | 6972 ft | 239 kts | 99° |
| 2026-04-29 22:28 | 45.86140 | 5.74042 | 6831 ft | 237 kts | 99° |
| 2026-04-29 22:28 | 45.85908 | 5.76388 | 6683 ft | 235 kts | 99° |
| 2026-04-29 22:28 | 45.85736 | 5.78719 | 6503 ft | 234 kts | 89° |
| 2026-04-29 22:28 | 45.85853 | 5.80987 | 6254 ft | 226 kts | 88° |
| 2026-04-29 22:29 | 45.85882 | 5.83193 | 5992 ft | 215 kts | 97° |
| 2026-04-29 22:29 | 45.85336 | 5.85018 | 5743 ft | 194 kts | 129° |
| 2026-04-29 22:29 | 45.84281 | 5.86106 | 5484 ft | 186 kts | 162° |
| 2026-04-29 22:29 | 45.83025 | 5.86428 | 5239 ft | 182 kts | 174° |
| 2026-04-29 22:30 | 45.81792 | 5.86545 | 5070 ft | 166 kts | 176° |
| 2026-04-29 22:30 | 45.80759 | 5.86631 | 5018 ft | 132 kts | 176° |
| 2026-04-29 22:30 | 45.79901 | 5.86699 | 4980 ft | 117 kts | 176° |
| 2026-04-29 22:30 | 45.79075 | 5.86770 | 4981 ft | 120 kts | 176° |
| 2026-04-29 22:31 | 45.78234 | 5.86838 | 4792 ft | 122 kts | 176° |
| 2026-04-29 22:31 | 45.77381 | 5.86905 | 4558 ft | 123 kts | 175° |
| 2026-04-29 22:31 | 45.76529 | 5.86976 | 4312 ft | 123 kts | 176° |
| 2026-04-29 22:31 | 45.75677 | 5.87049 | 4069 ft | 121 kts | 175° |
| 2026-04-29 22:32 | 45.74841 | 5.87112 | 3829 ft | 121 kts | 174° |
| 2026-04-29 22:32 | 45.74007 | 5.87182 | 3599 ft | 121 kts | 175° |
| 2026-04-29 22:32 | 45.73162 | 5.87252 | 3358 ft | 120 kts | 174° |
| 2026-04-29 22:32 | 45.72322 | 5.87319 | 3113 ft | 121 kts | 174° |
| 2026-04-29 22:33 | 45.71481 | 5.87391 | 2857 ft | 123 kts | 175° |
| 2026-04-29 22:33 | 45.70621 | 5.87457 | 2594 ft | 124 kts | 175° |
| 2026-04-29 22:33 | 45.69763 | 5.87541 | 2340 ft | 125 kts | 177° |
| 2026-04-29 22:33 | 45.68898 | 5.87611 | 2089 ft | 123 kts | 176° |
| 2026-04-29 22:34 | 45.68038 | 5.87678 | 1860 ft | 125 kts | 176° |
| 2026-04-29 22:34 | 45.67166 | 5.87751 | 1614 ft | 124 kts | 177° |
| 2026-04-29 22:34 | 45.66312 | 5.87823 | 1366 ft | 122 kts | 176° |
| 2026-04-29 22:34 | 45.65482 | 5.87891 | 1117 ft | 118 kts | 176° |
| 2026-04-29 22:35 | 45.64663 | 5.87953 | 857 ft | 119 kts | 175° |
| 2026-04-29 22:35 | 45.63888 | 5.88015 | 777 ft | 98 kts | 176° |
| 2026-04-29 22:35 | 45.63378 | 5.88056 | 776 ft | 48 kts | 178° |
| 2026-04-29 22:35 | 45.63156 | 5.88135 | 779 ft | 23 kts | 107° |
| 2026-04-29 22:36 | 45.63243 | 5.88270 | 777 ft | 22 kts | 359° |
| 2026-04-29 22:36 | 45.63394 | 5.88260 | 777 ft | 21 kts | 357° |
| 2026-04-29 22:36 | 45.63537 | 5.88249 | 777 ft | 21 kts | 357° |
| 2026-04-29 22:36 | 45.63679 | 5.88236 | 777 ft | 20 kts | 356° |
| 2026-04-29 22:37 | 45.63810 | 5.88240 | 777 ft | 16 kts | 9° |
| 2026-04-29 22:37 | 45.63923 | 5.88238 | 777 ft | 16 kts | 358° |
| 2026-04-29 22:37 | 45.63978 | 5.88272 | 777 ft | 5 kts | 85° |
| 2026-04-29 22:37 | 45.63981 | 5.88331 | 777 ft | 2 kts | 85° |
| 2026-04-29 22:38 | 45.63981 | 5.88332 | 777 ft | 0 kts | 86° |